EDFM

Mannheim City Airport

Mannheim, Germany
METAR EDFM 212050Z 21006KT 180V240 CAVOK 14/10 Q1019
Observed Flight Rules
Sep-21 @ 20:50 UTC (7 hours ago) Visual Flight Rules
Wind Visibility Clouds
210° at 6 knots 10,000+ meters
Temperatures Readings
Current 14°C / 57°F
Dewpoint 10°C / 50°F
Humidity 77%
Altimeter 30.09" Hg
Pressure 1019 hPa
Elevation 100
METAR EDFM 212050Z 21006KT 180V240 CAVOK 14/10 Q1019
Observed Flight Rules
Sep-21 @ 20:50 UTC
(7 hours ago)
VFR
Wind Visibility
210° at 6 knots 10,000+ meters
Clouds
Temperature Dewpoint
14°C / 57°F 10°C / 50°F
Humidity Altimeter Pressure
77% 30.09" Hg 1019 hPa